sensor_id;sensor_type;location;lat;lon;timestamp;P1;durP1;ratioP1;P2;durP2;ratioP2
5785;SDS011;2919;48.630;9.000;2023-03-08T00:00:56;10.50;;;4.80;;
5785;SDS011;2919;48.630;9.000;2023-03-08T00:03:22;12.00;;;5.10;;
5785;SDS011;2919;48.630;9.000;2023-03-08T00:05:47;6.70;;;3.80;;
5785;SDS011;2919;48.630;9.000;2023-03-08T00:08:13;6.93;;;4.30;;
5785;SDS011;2919;48.630;9.000;2023-03-08T00:10:40;10.33;;;4.90;;
5785;SDS011;2919;48.630;9.000;2023-03-08T00:13:06;10.10;;;4.10;;
5785;SDS011;2919;48.630;9.000;2023-03-08T00:15:31;12.13;;;5.27;;
5785;SDS011;2919;48.630;9.000;2023-03-08T00:17:57;7.90;;;4.40;;
5785;SDS011;2919;48.630;9.000;2023-03-08T00:20:23;11.43;;;4.33;;
5785;SDS011;2919;48.630;9.000;2023-03-08T00:22:48;8.83;;;4.03;;
5785;SDS011;2919;48.630;9.000;2023-03-08T00:25:14;8.97;;;4.37;;
5785;SDS011;2919;48.630;9.000;2023-03-08T00:27:40;12.33;;;5.00;;
5785;SDS011;2919;48.630;9.000;2023-03-08T00:30:06;11.20;;;4.30;;
5785;SDS011;2919;48.630;9.000;2023-03-08T00:32:33;14.00;;;4.80;;
5785;SDS011;2919;48.630;9.000;2023-03-08T00:34:58;10.60;;;4.57;;
5785;SDS011;2919;48.630;9.000;2023-03-08T00:37:24;9.77;;;4.20;;
5785;SDS011;2919;48.630;9.000;2023-03-08T00:39:50;12.30;;;4.60;;
5785;SDS011;2919;48.630;9.000;2023-03-08T00:42:17;10.23;;;4.33;;
5785;SDS011;2919;48.630;9.000;2023-03-08T00:44:43;10.93;;;4.50;;
5785;SDS011;2919;48.630;9.000;2023-03-08T00:47:09;8.13;;;4.10;;
5785;SDS011;2919;48.630;9.000;2023-03-08T00:49:35;11.03;;;3.53;;
5785;SDS011;2919;48.630;9.000;2023-03-08T00:52:00;10.40;;;4.30;;
5785;SDS011;2919;48.630;9.000;2023-03-08T00:54:26;11.53;;;3.30;;
5785;SDS011;2919;48.630;9.000;2023-03-08T00:56:53;9.00;;;4.80;;
5785;SDS011;2919;48.630;9.000;2023-03-08T00:59:19;9.33;;;5.30;;
5785;SDS011;2919;48.630;9.000;2023-03-08T01:01:44;7.60;;;3.63;;
5785;SDS011;2919;48.630;9.000;2023-03-08T01:04:10;9.83;;;4.20;;
5785;SDS011;2919;48.630;9.000;2023-03-08T01:06:37;12.73;;;4.87;;
5785;SDS011;2919;48.630;9.000;2023-03-08T01:09:03;8.20;;;4.40;;
5785;SDS011;2919;48.630;9.000;2023-03-08T01:11:29;14.90;;;5.43;;
5785;SDS011;2919;48.630;9.000;2023-03-08T01:13:55;15.97;;;5.87;;
5785;SDS011;2919;48.630;9.000;2023-03-08T01:16:24;9.23;;;4.47;;
5785;SDS011;2919;48.630;9.000;2023-03-08T01:18:52;9.47;;;3.90;;
5785;SDS011;2919;48.630;9.000;2023-03-08T01:21:18;12.37;;;4.80;;
5785;SDS011;2919;48.630;9.000;2023-03-08T01:23:44;13.73;;;5.50;;
5785;SDS011;2919;48.630;9.000;2023-03-08T01:26:14;8.90;;;4.70;;
5785;SDS011;2919;48.630;9.000;2023-03-08T01:28:42;13.17;;;5.90;;
5785;SDS011;2919;48.630;9.000;2023-03-08T01:31:13;9.47;;;4.70;;
5785;SDS011;2919;48.630;9.000;2023-03-08T01:33:40;11.03;;;4.83;;
5785;SDS011;2919;48.630;9.000;2023-03-08T01:36:06;18.37;;;5.23;;
5785;SDS011;2919;48.630;9.000;2023-03-08T01:38:33;10.40;;;4.90;;
5785;SDS011;2919;48.630;9.000;2023-03-08T01:41:02;16.40;;;5.80;;
5785;SDS011;2919;48.630;9.000;2023-03-08T01:43:30;13.77;;;4.47;;
5785;SDS011;2919;48.630;9.000;2023-03-08T01:46:13;4.93;;;3.33;;
5785;SDS011;2919;48.630;9.000;2023-03-08T01:51:13;12.03;;;5.07;;
5785;SDS011;2919;48.630;9.000;2023-03-08T01:53:44;10.23;;;4.60;;
5785;SDS011;2919;48.630;9.000;2023-03-08T01:56:11;6.63;;;4.07;;
5785;SDS011;2919;48.630;9.000;2023-03-08T01:58:41;10.70;;;5.13;;
5785;SDS011;2919;48.630;9.000;2023-03-08T02:01:08;14.03;;;5.10;;
5785;SDS011;2919;48.630;9.000;2023-03-08T02:03:34;10.20;;;4.80;;
5785;SDS011;2919;48.630;9.000;2023-03-08T02:06:00;11.13;;;4.93;;
5785;SDS011;2919;48.630;9.000;2023-03-08T02:08:28;6.77;;;3.30;;
5785;SDS011;2919;48.630;9.000;2023-03-08T02:10:55;14.93;;;5.60;;
5785;SDS011;2919;48.630;9.000;2023-03-08T02:13:22;12.20;;;4.87;;
5785;SDS011;2919;48.630;9.000;2023-03-08T02:15:48;7.90;;;4.30;;
5785;SDS011;2919;48.630;9.000;2023-03-08T02:18:16;13.03;;;4.20;;
5785;SDS011;2919;48.630;9.000;2023-03-08T02:20:42;9.00;;;4.23;;
5785;SDS011;2919;48.630;9.000;2023-03-08T02:25:33;13.73;;;5.10;;
5785;SDS011;2919;48.630;9.000;2023-03-08T02:27:59;12.43;;;4.00;;
5785;SDS011;2919;48.630;9.000;2023-03-08T02:30:28;13.13;;;5.70;;
5785;SDS011;2919;48.630;9.000;2023-03-08T02:32:56;6.50;;;4.37;;
5785;SDS011;2919;48.630;9.000;2023-03-08T02:35:21;6.53;;;4.13;;
5785;SDS011;2919;48.630;9.000;2023-03-08T02:37:47;11.63;;;4.87;;
5785;SDS011;2919;48.630;9.000;2023-03-08T02:40:13;9.70;;;3.80;;
5785;SDS011;2919;48.630;9.000;2023-03-08T02:42:39;12.10;;;4.33;;
5785;SDS011;2919;48.630;9.000;2023-03-08T02:45:05;12.43;;;4.90;;
5785;SDS011;2919;48.630;9.000;2023-03-08T02:47:31;11.83;;;4.33;;
5785;SDS011;2919;48.630;9.000;2023-03-08T02:49:57;8.73;;;4.10;;
5785;SDS011;2919;48.630;9.000;2023-03-08T02:52:23;7.23;;;4.13;;
5785;SDS011;2919;48.630;9.000;2023-03-08T02:54:48;15.13;;;5.07;;
5785;SDS011;2919;48.630;9.000;2023-03-08T02:57:14;8.50;;;4.70;;
5785;SDS011;2919;48.630;9.000;2023-03-08T02:59:39;11.90;;;5.30;;
5785;SDS011;2919;48.630;9.000;2023-03-08T03:02:05;12.27;;;4.90;;
5785;SDS011;2919;48.630;9.000;2023-03-08T03:04:31;8.60;;;4.17;;
5785;SDS011;2919;48.630;9.000;2023-03-08T03:06:58;8.17;;;4.40;;
5785;SDS011;2919;48.630;9.000;2023-03-08T03:09:24;10.23;;;4.40;;
5785;SDS011;2919;48.630;9.000;2023-03-08T03:11:51;11.00;;;3.80;;
5785;SDS011;2919;48.630;9.000;2023-03-08T03:14:17;12.07;;;5.13;;
5785;SDS011;2919;48.630;9.000;2023-03-08T03:16:42;9.50;;;4.37;;
5785;SDS011;2919;48.630;9.000;2023-03-08T03:19:08;7.70;;;3.60;;
5785;SDS011;2919;48.630;9.000;2023-03-08T03:21:33;7.87;;;4.30;;
5785;SDS011;2919;48.630;9.000;2023-03-08T03:23:59;8.77;;;3.67;;
5785;SDS011;2919;48.630;9.000;2023-03-08T03:26:25;9.70;;;4.80;;
5785;SDS011;2919;48.630;9.000;2023-03-08T03:28:51;7.13;;;4.47;;
5785;SDS011;2919;48.630;9.000;2023-03-08T03:31:19;11.47;;;4.97;;
5785;SDS011;2919;48.630;9.000;2023-03-08T03:33:47;8.53;;;4.80;;
5785;SDS011;2919;48.630;9.000;2023-03-08T03:36:14;11.90;;;4.60;;
5785;SDS011;2919;48.630;9.000;2023-03-08T03:38:42;15.37;;;4.53;;
5785;SDS011;2919;48.630;9.000;2023-03-08T03:41:09;9.23;;;4.43;;
5785;SDS011;2919;48.630;9.000;2023-03-08T03:43:39;12.63;;;5.30;;
5785;SDS011;2919;48.630;9.000;2023-03-08T03:46:07;7.67;;;3.90;;
5785;SDS011;2919;48.630;9.000;2023-03-08T03:48:35;5.53;;;3.10;;
5785;SDS011;2919;48.630;9.000;2023-03-08T03:53:29;7.50;;;3.60;;
5785;SDS011;2919;48.630;9.000;2023-03-08T03:56:03;11.43;;;4.30;;
5785;SDS011;2919;48.630;9.000;2023-03-08T03:58:30;12.37;;;5.60;;
5785;SDS011;2919;48.630;9.000;2023-03-08T04:00:56;14.50;;;4.20;;
5785;SDS011;2919;48.630;9.000;2023-03-08T04:03:22;11.10;;;4.87;;
5785;SDS011;2919;48.630;9.000;2023-03-08T04:05:48;9.97;;;4.63;;
5785;SDS011;2919;48.630;9.000;2023-03-08T04:08:13;7.20;;;4.07;;
5785;SDS011;2919;48.630;9.000;2023-03-08T04:10:39;8.90;;;4.33;;
5785;SDS011;2919;48.630;9.000;2023-03-08T04:13:04;17.20;;;5.20;;
5785;SDS011;2919;48.630;9.000;2023-03-08T04:15:30;7.57;;;3.73;;
5785;SDS011;2919;48.630;9.000;2023-03-08T04:17:56;14.37;;;4.70;;
5785;SDS011;2919;48.630;9.000;2023-03-08T04:20:22;11.87;;;5.03;;
5785;SDS011;2919;48.630;9.000;2023-03-08T04:22:48;9.10;;;4.20;;
5785;SDS011;2919;48.630;9.000;2023-03-08T04:25:14;16.00;;;5.70;;
5785;SDS011;2919;48.630;9.000;2023-03-08T04:27:39;11.47;;;4.90;;
5785;SDS011;2919;48.630;9.000;2023-03-08T04:30:05;11.80;;;5.23;;
5785;SDS011;2919;48.630;9.000;2023-03-08T04:32:31;8.63;;;3.47;;
5785;SDS011;2919;48.630;9.000;2023-03-08T04:34:57;9.40;;;4.13;;
5785;SDS011;2919;48.630;9.000;2023-03-08T04:37:23;10.00;;;4.00;;
5785;SDS011;2919;48.630;9.000;2023-03-08T04:39:49;12.20;;;4.70;;
5785;SDS011;2919;48.630;9.000;2023-03-08T04:42:15;9.50;;;4.87;;
5785;SDS011;2919;48.630;9.000;2023-03-08T04:44:40;13.27;;;5.20;;
5785;SDS011;2919;48.630;9.000;2023-03-08T04:47:06;15.10;;;4.40;;
5785;SDS011;2919;48.630;9.000;2023-03-08T04:49:32;8.83;;;4.13;;
5785;SDS011;2919;48.630;9.000;2023-03-08T04:51:57;12.73;;;4.53;;
5785;SDS011;2919;48.630;9.000;2023-03-08T04:54:23;12.73;;;4.10;;
5785;SDS011;2919;48.630;9.000;2023-03-08T04:56:48;15.13;;;5.30;;
5785;SDS011;2919;48.630;9.000;2023-03-08T04:59:14;10.70;;;4.57;;
5785;SDS011;2919;48.630;9.000;2023-03-08T05:01:40;9.07;;;4.60;;
5785;SDS011;2919;48.630;9.000;2023-03-08T05:04:08;11.73;;;4.40;;
5785;SDS011;2919;48.630;9.000;2023-03-08T05:06:35;9.30;;;4.57;;
5785;SDS011;2919;48.630;9.000;2023-03-08T05:09:00;10.53;;;5.20;;
5785;SDS011;2919;48.630;9.000;2023-03-08T05:11:26;12.47;;;5.40;;
5785;SDS011;2919;48.630;9.000;2023-03-08T05:13:53;8.93;;;4.50;;
5785;SDS011;2919;48.630;9.000;2023-03-08T05:16:21;11.17;;;5.03;;
5785;SDS011;2919;48.630;9.000;2023-03-08T05:18:47;12.23;;;4.50;;
5785;SDS011;2919;48.630;9.000;2023-03-08T05:21:14;12.13;;;5.83;;
5785;SDS011;2919;48.630;9.000;2023-03-08T05:23:42;8.20;;;4.30;;
5785;SDS011;2919;48.630;9.000;2023-03-08T05:26:08;9.67;;;4.97;;
5785;SDS011;2919;48.630;9.000;2023-03-08T05:28:36;10.40;;;5.17;;
5785;SDS011;2919;48.630;9.000;2023-03-08T05:31:05;9.73;;;5.20;;
5785;SDS011;2919;48.630;9.000;2023-03-08T05:33:36;11.47;;;4.53;;
5785;SDS011;2919;48.630;9.000;2023-03-08T05:36:03;11.47;;;4.37;;
5785;SDS011;2919;48.630;9.000;2023-03-08T05:38:30;11.70;;;5.63;;
5785;SDS011;2919;48.630;9.000;2023-03-08T05:41:02;11.27;;;5.30;;
5785;SDS011;2919;48.630;9.000;2023-03-08T05:43:29;10.40;;;5.40;;
5785;SDS011;2919;48.630;9.000;2023-03-08T05:45:59;11.53;;;5.53;;
5785;SDS011;2919;48.630;9.000;2023-03-08T05:48:27;9.60;;;4.30;;
5785;SDS011;2919;48.630;9.000;2023-03-08T05:50:54;14.43;;;5.33;;
5785;SDS011;2919;48.630;9.000;2023-03-08T05:53:20;12.30;;;5.47;;
5785;SDS011;2919;48.630;9.000;2023-03-08T05:55:47;12.07;;;5.43;;
5785;SDS011;2919;48.630;9.000;2023-03-08T05:58:13;10.60;;;5.23;;
5785;SDS011;2919;48.630;9.000;2023-03-08T06:00:39;10.90;;;5.57;;
5785;SDS011;2919;48.630;9.000;2023-03-08T06:03:05;16.87;;;6.00;;
5785;SDS011;2919;48.630;9.000;2023-03-08T06:05:31;17.00;;;8.40;;
5785;SDS011;2919;48.630;9.000;2023-03-08T06:07:57;13.53;;;6.17;;
5785;SDS011;2919;48.630;9.000;2023-03-08T06:10:23;20.63;;;6.80;;
5785;SDS011;2919;48.630;9.000;2023-03-08T06:12:49;15.57;;;6.33;;
5785;SDS011;2919;48.630;9.000;2023-03-08T06:15:15;13.80;;;6.23;;
5785;SDS011;2919;48.630;9.000;2023-03-08T06:17:41;13.83;;;6.57;;
5785;SDS011;2919;48.630;9.000;2023-03-08T06:20:07;27.57;;;7.40;;
5785;SDS011;2919;48.630;9.000;2023-03-08T06:22:33;13.90;;;6.23;;
5785;SDS011;2919;48.630;9.000;2023-03-08T06:24:59;17.93;;;6.20;;
5785;SDS011;2919;48.630;9.000;2023-03-08T06:27:25;19.37;;;6.77;;
5785;SDS011;2919;48.630;9.000;2023-03-08T06:29:51;11.73;;;5.37;;
5785;SDS011;2919;48.630;9.000;2023-03-08T06:32:17;13.83;;;6.43;;
5785;SDS011;2919;48.630;9.000;2023-03-08T06:34:43;11.57;;;5.50;;
5785;SDS011;2919;48.630;9.000;2023-03-08T06:37:09;15.80;;;6.20;;
5785;SDS011;2919;48.630;9.000;2023-03-08T06:39:35;12.97;;;6.27;;
5785;SDS011;2919;48.630;9.000;2023-03-08T06:42:00;13.70;;;7.07;;
5785;SDS011;2919;48.630;9.000;2023-03-08T06:44:27;13.73;;;5.73;;
5785;SDS011;2919;48.630;9.000;2023-03-08T06:46:53;19.03;;;8.23;;
5785;SDS011;2919;48.630;9.000;2023-03-08T06:49:19;14.80;;;5.33;;
5785;SDS011;2919;48.630;9.000;2023-03-08T06:51:44;21.93;;;7.03;;
5785;SDS011;2919;48.630;9.000;2023-03-08T06:54:10;17.53;;;8.43;;
5785;SDS011;2919;48.630;9.000;2023-03-08T06:56:41;18.57;;;6.73;;
5785;SDS011;2919;48.630;9.000;2023-03-08T06:59:08;21.33;;;7.40;;
5785;SDS011;2919;48.630;9.000;2023-03-08T07:01:33;13.93;;;7.07;;
5785;SDS011;2919;48.630;9.000;2023-03-08T07:03:59;13.30;;;5.73;;
5785;SDS011;2919;48.630;9.000;2023-03-08T07:06:24;14.90;;;6.43;;
5785;SDS011;2919;48.630;9.000;2023-03-08T07:08:50;16.60;;;7.77;;
5785;SDS011;2919;48.630;9.000;2023-03-08T07:11:16;14.17;;;5.90;;
5785;SDS011;2919;48.630;9.000;2023-03-08T07:13:41;15.27;;;6.60;;
5785;SDS011;2919;48.630;9.000;2023-03-08T07:16:11;16.60;;;6.43;;
5785;SDS011;2919;48.630;9.000;2023-03-08T07:18:37;12.90;;;5.33;;
5785;SDS011;2919;48.630;9.000;2023-03-08T07:21:04;16.03;;;6.27;;
5785;SDS011;2919;48.630;9.000;2023-03-08T07:23:30;14.80;;;6.27;;
5785;SDS011;2919;48.630;9.000;2023-03-08T07:25:56;15.07;;;5.33;;
5785;SDS011;2919;48.630;9.000;2023-03-08T07:28:21;10.33;;;4.50;;
5785;SDS011;2919;48.630;9.000;2023-03-08T07:30:48;9.30;;;4.80;;
5785;SDS011;2919;48.630;9.000;2023-03-08T07:33:15;12.37;;;4.90;;
5785;SDS011;2919;48.630;9.000;2023-03-08T07:35:42;10.43;;;4.37;;
5785;SDS011;2919;48.630;9.000;2023-03-08T07:38:08;13.90;;;5.97;;
5785;SDS011;2919;48.630;9.000;2023-03-08T07:40:35;8.90;;;5.40;;
5785;SDS011;2919;48.630;9.000;2023-03-08T07:43:00;17.20;;;5.83;;
5785;SDS011;2919;48.630;9.000;2023-03-08T07:45:26;12.10;;;6.63;;
5785;SDS011;2919;48.630;9.000;2023-03-08T07:47:52;7.80;;;4.47;;
5785;SDS011;2919;48.630;9.000;2023-03-08T07:50:18;9.30;;;4.97;;
5785;SDS011;2919;48.630;9.000;2023-03-08T07:52:44;16.63;;;6.23;;
5785;SDS011;2919;48.630;9.000;2023-03-08T07:55:10;12.53;;;6.30;;
5785;SDS011;2919;48.630;9.000;2023-03-08T07:57:36;11.00;;;5.43;;
5785;SDS011;2919;48.630;9.000;2023-03-08T08:00:03;12.87;;;6.07;;
5785;SDS011;2919;48.630;9.000;2023-03-08T08:02:33;10.80;;;4.03;;
5785;SDS011;2919;48.630;9.000;2023-03-08T08:05:02;10.67;;;5.17;;
5785;SDS011;2919;48.630;9.000;2023-03-08T08:07:28;11.90;;;4.77;;
5785;SDS011;2919;48.630;9.000;2023-03-08T08:09:55;11.13;;;5.50;;
5785;SDS011;2919;48.630;9.000;2023-03-08T08:12:20;11.07;;;5.27;;
5785;SDS011;2919;48.630;9.000;2023-03-08T08:14:49;13.57;;;7.00;;
5785;SDS011;2919;48.630;9.000;2023-03-08T08:17:16;18.20;;;5.70;;
5785;SDS011;2919;48.630;9.000;2023-03-08T08:19:43;11.77;;;4.73;;
5785;SDS011;2919;48.630;9.000;2023-03-08T08:22:09;16.43;;;5.83;;
5785;SDS011;2919;48.630;9.000;2023-03-08T08:24:34;14.80;;;6.17;;
5785;SDS011;2919;48.630;9.000;2023-03-08T08:27:00;12.60;;;5.83;;
5785;SDS011;2919;48.630;9.000;2023-03-08T08:29:25;16.00;;;6.00;;
5785;SDS011;2919;48.630;9.000;2023-03-08T08:31:51;12.80;;;6.77;;
5785;SDS011;2919;48.630;9.000;2023-03-08T08:34:18;11.53;;;5.90;;
5785;SDS011;2919;48.630;9.000;2023-03-08T08:36:44;13.57;;;6.23;;
5785;SDS011;2919;48.630;9.000;2023-03-08T08:39:10;9.50;;;6.00;;
5785;SDS011;2919;48.630;9.000;2023-03-08T08:41:35;11.10;;;5.43;;
5785;SDS011;2919;48.630;9.000;2023-03-08T08:44:01;9.07;;;5.33;;
5785;SDS011;2919;48.630;9.000;2023-03-08T08:46:27;13.93;;;6.20;;
5785;SDS011;2919;48.630;9.000;2023-03-08T08:48:53;7.93;;;4.73;;
5785;SDS011;2919;48.630;9.000;2023-03-08T08:51:19;7.93;;;4.03;;
5785;SDS011;2919;48.630;9.000;2023-03-08T08:53:45;11.63;;;5.80;;
5785;SDS011;2919;48.630;9.000;2023-03-08T08:56:15;10.60;;;5.53;;
5785;SDS011;2919;48.630;9.000;2023-03-08T08:58:46;13.57;;;5.77;;
5785;SDS011;2919;48.630;9.000;2023-03-08T09:01:16;8.73;;;5.27;;
5785;SDS011;2919;48.630;9.000;2023-03-08T09:03:49;12.03;;;6.67;;
5785;SDS011;2919;48.630;9.000;2023-03-08T09:06:16;10.80;;;5.23;;
5785;SDS011;2919;48.630;9.000;2023-03-08T09:08:44;16.13;;;6.17;;
5785;SDS011;2919;48.630;9.000;2023-03-08T09:11:12;14.30;;;6.50;;
5785;SDS011;2919;48.630;9.000;2023-03-08T09:13:38;9.87;;;4.63;;
5785;SDS011;2919;48.630;9.000;2023-03-08T09:16:05;7.87;;;5.00;;
5785;SDS011;2919;48.630;9.000;2023-03-08T09:18:31;12.83;;;6.37;;
5785;SDS011;2919;48.630;9.000;2023-03-08T09:20:59;11.30;;;5.43;;
5785;SDS011;2919;48.630;9.000;2023-03-08T09:23:26;13.50;;;5.67;;
5785;SDS011;2919;48.630;9.000;2023-03-08T09:25:56;12.90;;;5.53;;
5785;SDS011;2919;48.630;9.000;2023-03-08T09:28:22;9.83;;;5.10;;
5785;SDS011;2919;48.630;9.000;2023-03-08T09:30:48;15.50;;;6.00;;
5785;SDS011;2919;48.630;9.000;2023-03-08T09:33:13;15.80;;;5.33;;
5785;SDS011;2919;48.630;9.000;2023-03-08T09:35:39;13.33;;;5.93;;
5785;SDS011;2919;48.630;9.000;2023-03-08T09:38:05;11.73;;;5.50;;
5785;SDS011;2919;48.630;9.000;2023-03-08T09:40:32;7.37;;;3.80;;
5785;SDS011;2919;48.630;9.000;2023-03-08T09:43:08;12.33;;;5.57;;
5785;SDS011;2919;48.630;9.000;2023-03-08T09:45:38;9.83;;;5.33;;
5785;SDS011;2919;48.630;9.000;2023-03-08T09:48:12;10.10;;;4.50;;
5785;SDS011;2919;48.630;9.000;2023-03-08T09:50:51;9.47;;;4.13;;
5785;SDS011;2919;48.630;9.000;2023-03-08T09:54:02;12.37;;;4.10;;
5785;SDS011;2919;48.630;9.000;2023-03-08T09:58:57;10.07;;;4.57;;
5785;SDS011;2919;48.630;9.000;2023-03-08T10:01:35;5.93;;;3.47;;
5785;SDS011;2919;48.630;9.000;2023-03-08T10:04:12;13.40;;;4.83;;
5785;SDS011;2919;48.630;9.000;2023-03-08T10:12:55;7.13;;;3.80;;
5785;SDS011;2919;48.630;9.000;2023-03-08T10:15:41;5.07;;;2.97;;
5785;SDS011;2919;48.630;9.000;2023-03-08T10:20:41;7.13;;;3.33;;
5785;SDS011;2919;48.630;9.000;2023-03-08T10:23:18;8.63;;;4.17;;
5785;SDS011;2919;48.630;9.000;2023-03-08T10:25:46;10.40;;;3.90;;
5785;SDS011;2919;48.630;9.000;2023-03-08T10:30:42;10.47;;;3.77;;
5785;SDS011;2919;48.630;9.000;2023-03-08T10:33:11;3.90;;;2.43;;
5785;SDS011;2919;48.630;9.000;2023-03-08T10:38:22;9.23;;;2.73;;
5785;SDS011;2919;48.630;9.000;2023-03-08T10:40:57;4.37;;;2.07;;
5785;SDS011;2919;48.630;9.000;2023-03-08T10:43:25;4.13;;;2.03;;
5785;SDS011;2919;48.630;9.000;2023-03-08T10:46:00;4.27;;;1.93;;
5785;SDS011;2919;48.630;9.000;2023-03-08T10:48:34;5.03;;;2.13;;
5785;SDS011;2919;48.630;9.000;2023-03-08T10:51:01;1.83;;;1.20;;
5785;SDS011;2919;48.630;9.000;2023-03-08T10:53:29;2.60;;;1.43;;
5785;SDS011;2919;48.630;9.000;2023-03-08T10:55:56;3.00;;;1.10;;
5785;SDS011;2919;48.630;9.000;2023-03-08T11:00:53;2.50;;;0.93;;
5785;SDS011;2919;48.630;9.000;2023-03-08T11:03:20;2.10;;;1.00;;
5785;SDS011;2919;48.630;9.000;2023-03-08T11:08:18;1.57;;;0.73;;
5785;SDS011;2919;48.630;9.000;2023-03-08T11:10:45;3.20;;;0.90;;
5785;SDS011;2919;48.630;9.000;2023-03-08T11:13:28;3.43;;;0.80;;
5785;SDS011;2919;48.630;9.000;2023-03-08T11:18:42;1.60;;;0.70;;
5785;SDS011;2919;48.630;9.000;2023-03-08T11:21:27;1.80;;;0.93;;
5785;SDS011;2919;48.630;9.000;2023-03-08T11:26:41;1.77;;;0.80;;
5785;SDS011;2919;48.630;9.000;2023-03-08T11:45:46;1.50;;;0.50;;
5785;SDS011;2919;48.630;9.000;2023-03-08T11:48:42;2.00;;;0.73;;
5785;SDS011;2919;48.630;9.000;2023-03-08T11:56:57;1.20;;;0.50;;
5785;SDS011;2919;48.630;9.000;2023-03-08T11:59:33;2.07;;;0.63;;
5785;SDS011;2919;48.630;9.000;2023-03-08T12:05:11;1.30;;;0.50;;
5785;SDS011;2919;48.630;9.000;2023-03-08T12:10:41;1.20;;;0.50;;
5785;SDS011;2919;48.630;9.000;2023-03-08T12:13:23;1.20;;;0.50;;
5785;SDS011;2919;48.630;9.000;2023-03-08T12:16:01;1.63;;;0.60;;
5785;SDS011;2919;48.630;9.000;2023-03-08T12:23:47;1.53;;;0.63;;
5785;SDS011;2919;48.630;9.000;2023-03-08T12:28:50;2.27;;;0.67;;
5785;SDS011;2919;48.630;9.000;2023-03-08T12:31:42;1.53;;;0.70;;
5785;SDS011;2919;48.630;9.000;2023-03-08T12:34:22;1.20;;;0.53;;
5785;SDS011;2919;48.630;9.000;2023-03-08T12:37:00;1.20;;;0.50;;
5785;SDS011;2919;48.630;9.000;2023-03-08T12:44:34;1.20;;;0.50;;
5785;SDS011;2919;48.630;9.000;2023-03-08T12:47:02;1.30;;;0.57;;
5785;SDS011;2919;48.630;9.000;2023-03-08T12:49:50;1.40;;;0.53;;
5785;SDS011;2919;48.630;9.000;2023-03-08T12:57:50;1.30;;;0.60;;
5785;SDS011;2919;48.630;9.000;2023-03-08T13:03:01;1.40;;;0.60;;
5785;SDS011;2919;48.630;9.000;2023-03-08T13:05:34;1.20;;;0.60;;
5785;SDS011;2919;48.630;9.000;2023-03-08T13:08:03;1.50;;;0.70;;
5785;SDS011;2919;48.630;9.000;2023-03-08T13:10:51;1.30;;;0.60;;
5785;SDS011;2919;48.630;9.000;2023-03-08T13:19:28;1.93;;;0.67;;
5785;SDS011;2919;48.630;9.000;2023-03-08T13:24:39;2.17;;;0.60;;
5785;SDS011;2919;48.630;9.000;2023-03-08T13:32:48;1.30;;;0.50;;
5785;SDS011;2919;48.630;9.000;2023-03-08T13:35:15;3.40;;;0.97;;
5785;SDS011;2919;48.630;9.000;2023-03-08T13:37:41;1.33;;;0.50;;
5785;SDS011;2919;48.630;9.000;2023-03-08T13:40:16;1.20;;;0.50;;
5785;SDS011;2919;48.630;9.000;2023-03-08T13:45:33;1.30;;;0.60;;
5785;SDS011;2919;48.630;9.000;2023-03-08T13:47:59;2.33;;;0.70;;
5785;SDS011;2919;48.630;9.000;2023-03-08T13:53:07;1.20;;;0.60;;
5785;SDS011;2919;48.630;9.000;2023-03-08T13:55:42;1.60;;;0.60;;
5785;SDS011;2919;48.630;9.000;2023-03-08T14:01:15;2.00;;;0.70;;
5785;SDS011;2919;48.630;9.000;2023-03-08T14:03:42;1.77;;;0.50;;
5785;SDS011;2919;48.630;9.000;2023-03-08T14:06:23;1.80;;;0.53;;
5785;SDS011;2919;48.630;9.000;2023-03-08T14:08:53;1.30;;;0.50;;
5785;SDS011;2919;48.630;9.000;2023-03-08T14:11:36;1.20;;;0.40;;
5785;SDS011;2919;48.630;9.000;2023-03-08T14:14:04;1.47;;;0.50;;
5785;SDS011;2919;48.630;9.000;2023-03-08T14:16:34;1.20;;;0.50;;
5785;SDS011;2919;48.630;9.000;2023-03-08T14:19:09;1.30;;;0.60;;
5785;SDS011;2919;48.630;9.000;2023-03-08T14:24:26;1.20;;;0.50;;
5785;SDS011;2919;48.630;9.000;2023-03-08T14:27:01;1.20;;;0.47;;
5785;SDS011;2919;48.630;9.000;2023-03-08T14:29:33;1.20;;;0.50;;
5785;SDS011;2919;48.630;9.000;2023-03-08T14:34:43;2.20;;;0.60;;
5785;SDS011;2919;48.630;9.000;2023-03-08T14:39:46;1.30;;;0.60;;
5785;SDS011;2919;48.630;9.000;2023-03-08T14:42:21;3.00;;;0.50;;
5785;SDS011;2919;48.630;9.000;2023-03-08T14:45:01;2.83;;;0.70;;
5785;SDS011;2919;48.630;9.000;2023-03-08T14:47:47;1.20;;;0.47;;
5785;SDS011;2919;48.630;9.000;2023-03-08T14:52:47;2.80;;;0.60;;
5785;SDS011;2919;48.630;9.000;2023-03-08T14:55:24;1.20;;;0.60;;
5785;SDS011;2919;48.630;9.000;2023-03-08T14:58:07;1.50;;;0.77;;
5785;SDS011;2919;48.630;9.000;2023-03-08T15:00:46;1.30;;;0.60;;
5785;SDS011;2919;48.630;9.000;2023-03-08T15:03:15;1.40;;;0.70;;
5785;SDS011;2919;48.630;9.000;2023-03-08T15:05:40;1.60;;;0.70;;
5785;SDS011;2919;48.630;9.000;2023-03-08T15:08:07;2.93;;;0.60;;
5785;SDS011;2919;48.630;9.000;2023-03-08T15:10:36;1.40;;;0.60;;
5785;SDS011;2919;48.630;9.000;2023-03-08T15:13:04;1.20;;;0.57;;
5785;SDS011;2919;48.630;9.000;2023-03-08T15:15:35;1.50;;;0.60;;
5785;SDS011;2919;48.630;9.000;2023-03-08T15:18:01;1.60;;;0.60;;
5785;SDS011;2919;48.630;9.000;2023-03-08T15:20:26;1.83;;;0.50;;
5785;SDS011;2919;48.630;9.000;2023-03-08T15:22:57;3.27;;;0.60;;
5785;SDS011;2919;48.630;9.000;2023-03-08T15:25:37;1.30;;;0.60;;
5785;SDS011;2919;48.630;9.000;2023-03-08T15:28:03;1.13;;;0.50;;
5785;SDS011;2919;48.630;9.000;2023-03-08T15:30:30;1.43;;;0.70;;
5785;SDS011;2919;48.630;9.000;2023-03-08T15:32:56;1.40;;;0.60;;
5785;SDS011;2919;48.630;9.000;2023-03-08T15:35:23;2.13;;;0.70;;
5785;SDS011;2919;48.630;9.000;2023-03-08T15:37:49;2.10;;;0.50;;
5785;SDS011;2919;48.630;9.000;2023-03-08T15:40:16;1.30;;;0.53;;
5785;SDS011;2919;48.630;9.000;2023-03-08T15:42:44;1.50;;;0.60;;
5785;SDS011;2919;48.630;9.000;2023-03-08T15:45:10;2.17;;;0.70;;
5785;SDS011;2919;48.630;9.000;2023-03-08T15:47:37;2.63;;;0.50;;
5785;SDS011;2919;48.630;9.000;2023-03-08T15:50:03;3.93;;;0.70;;
5785;SDS011;2919;48.630;9.000;2023-03-08T15:52:31;1.30;;;0.60;;
5785;SDS011;2919;48.630;9.000;2023-03-08T15:54:56;1.20;;;0.50;;
5785;SDS011;2919;48.630;9.000;2023-03-08T15:57:22;1.57;;;0.53;;
5785;SDS011;2919;48.630;9.000;2023-03-08T15:59:48;1.83;;;0.93;;
5785;SDS011;2919;48.630;9.000;2023-03-08T16:02:16;4.70;;;0.80;;
5785;SDS011;2919;48.630;9.000;2023-03-08T16:04:43;1.40;;;0.57;;
5785;SDS011;2919;48.630;9.000;2023-03-08T16:07:13;2.80;;;0.60;;
5785;SDS011;2919;48.630;9.000;2023-03-08T16:09:40;1.30;;;0.40;;
5785;SDS011;2919;48.630;9.000;2023-03-08T16:12:06;1.10;;;0.40;;
5785;SDS011;2919;48.630;9.000;2023-03-08T16:14:32;1.37;;;0.57;;
5785;SDS011;2919;48.630;9.000;2023-03-08T16:16:58;1.20;;;0.60;;
5785;SDS011;2919;48.630;9.000;2023-03-08T16:19:24;1.30;;;0.50;;
5785;SDS011;2919;48.630;9.000;2023-03-08T16:21:49;1.20;;;0.50;;
5785;SDS011;2919;48.630;9.000;2023-03-08T16:24:15;1.20;;;0.53;;
5785;SDS011;2919;48.630;9.000;2023-03-08T16:26:41;1.10;;;0.40;;
5785;SDS011;2919;48.630;9.000;2023-03-08T16:29:07;1.30;;;0.50;;
5785;SDS011;2919;48.630;9.000;2023-03-08T16:31:33;1.63;;;0.60;;
5785;SDS011;2919;48.630;9.000;2023-03-08T16:34:03;1.30;;;0.50;;
5785;SDS011;2919;48.630;9.000;2023-03-08T16:36:30;1.77;;;0.70;;
5785;SDS011;2919;48.630;9.000;2023-03-08T16:38:57;1.47;;;0.50;;
5785;SDS011;2919;48.630;9.000;2023-03-08T16:41:23;1.50;;;0.50;;
5785;SDS011;2919;48.630;9.000;2023-03-08T16:43:50;1.87;;;0.73;;
5785;SDS011;2919;48.630;9.000;2023-03-08T16:46:17;2.40;;;0.60;;
5785;SDS011;2919;48.630;9.000;2023-03-08T16:48:44;1.23;;;0.57;;
5785;SDS011;2919;48.630;9.000;2023-03-08T16:51:13;1.27;;;0.50;;
5785;SDS011;2919;48.630;9.000;2023-03-08T16:53:40;1.77;;;0.87;;
5785;SDS011;2919;48.630;9.000;2023-03-08T16:56:06;1.73;;;0.70;;
5785;SDS011;2919;48.630;9.000;2023-03-08T16:58:32;1.30;;;0.63;;
5785;SDS011;2919;48.630;9.000;2023-03-08T17:00:57;1.40;;;0.57;;
5785;SDS011;2919;48.630;9.000;2023-03-08T17:03:23;1.30;;;0.60;;
5785;SDS011;2919;48.630;9.000;2023-03-08T17:05:49;1.27;;;0.50;;
5785;SDS011;2919;48.630;9.000;2023-03-08T17:08:16;3.70;;;0.73;;
5785;SDS011;2919;48.630;9.000;2023-03-08T17:10:42;1.87;;;0.70;;
5785;SDS011;2919;48.630;9.000;2023-03-08T17:13:10;1.30;;;0.60;;